Edison, CA

5:52 AM PST on February 06, 2016 (GMT -0800)
APRSWXNET | | Change Station
CLOSE
Current Station
Personal Weather Station
Location: Edison, CA
Elevation: 511 ft
Nearby Weather Stations

Elev 511 ft 35.29 °N, 118.86 °W | Updated 25 minutes ago

Fog
Fog
40 °F
Feels Like 40 °F
N
2
Wind Variable Wind from NNE
Gusts 3.0 mph

Today
High -- | Low -- °F
--% Chance of Precip.
Yesterday
High -- | Low -- °F
Precip. -- in
Pressure 30.38 in
Visibility 3.0 miles
Clouds Clear
Windchill 40 °F
Dew Point 36 °F
Humidity 87%
Rainfall in
Snow Depth Not available.
6:51 AM 5:28 PM
Waning Crescent, 5% visible
SPECI KBFL 061342Z AUTO 04006KT 3SM BR CLR 04/02 A3038 RMK AO2 T00440022
Pressure 30.38 in
Visibility 3.0 miles
Clouds Clear
Windchill 40 °F
Dew Point 36 °F
Humidity 87%
Rainfall in
Snow Depth Not available.
6:51 AM 5:28 PM
Waning Crescent, 5% visible
SPECI KBFL 061342Z AUTO 04006KT 3SM BR CLR 04/02 A3038 RMK AO2 T00440022

10-Day Weather Forecast

Almanac

Astronomy

Feb. 06, 2016 Rise Set
Actual Time
Civil Twilight
Nautical Twilight
Astronomical Twilight
Moon
Length of Visible Light
Length of Day
Tomorrow will be .
, % of the Moon is Illuminated

Today's Extremes

State Highs State Lows

Community

WunderPhotos

Upload Photos

1,890,971 photos uploaded!

WunderBlog® & News

Nearby

Air Quality

  Air Quality AQ Index Pollutant
Not available.

Snow Depth

Station Depth Elevation

Earthquake Activity

City Distance Mag. Time & Date
Minimum magnitude displayed is 2.5.

Coastal Water Temperatures

Place Temperature

Stations

Nearby Weather Stations

Station Location Temp. Windchill Dew Point Humidity Wind Precip. Elev Updated Type
                   

Watches & Warnings

There are currently no watches in effect.